sensor_id;sensor_type;location;lat;lon;timestamp;P1;durP1;ratioP1;P2;durP2;ratioP2
2388;SDS011;1205;47.984;7.668;2022-08-16T00:00:59;5.77;;;5.13;;
2388;SDS011;1205;47.984;7.668;2022-08-16T00:03:25;13.43;;;5.37;;
2388;SDS011;1205;47.984;7.668;2022-08-16T00:05:51;6.37;;;4.53;;
2388;SDS011;1205;47.984;7.668;2022-08-16T00:08:17;6.70;;;4.00;;
2388;SDS011;1205;47.984;7.668;2022-08-16T00:10:43;7.83;;;4.47;;
2388;SDS011;1205;47.984;7.668;2022-08-16T00:13:09;5.10;;;4.23;;
2388;SDS011;1205;47.984;7.668;2022-08-16T00:15:40;4.70;;;4.30;;
2388;SDS011;1205;47.984;7.668;2022-08-16T00:18:08;8.27;;;4.77;;
2388;SDS011;1205;47.984;7.668;2022-08-16T00:20:34;6.50;;;5.20;;
2388;SDS011;1205;47.984;7.668;2022-08-16T00:23:02;10.27;;;5.23;;
2388;SDS011;1205;47.984;7.668;2022-08-16T00:25:28;5.57;;;4.77;;
2388;SDS011;1205;47.984;7.668;2022-08-16T00:27:54;5.27;;;4.77;;
2388;SDS011;1205;47.984;7.668;2022-08-16T00:30:20;8.10;;;5.27;;
2388;SDS011;1205;47.984;7.668;2022-08-16T00:32:48;4.90;;;4.40;;
2388;SDS011;1205;47.984;7.668;2022-08-16T00:35:17;7.00;;;4.80;;
2388;SDS011;1205;47.984;7.668;2022-08-16T00:37:47;6.90;;;4.87;;
2388;SDS011;1205;47.984;7.668;2022-08-16T00:40:14;8.73;;;4.93;;
2388;SDS011;1205;47.984;7.668;2022-08-16T00:42:43;5.07;;;4.57;;
2388;SDS011;1205;47.984;7.668;2022-08-16T00:47:44;4.80;;;4.40;;
2388;SDS011;1205;47.984;7.668;2022-08-16T00:50:12;5.40;;;4.70;;
2388;SDS011;1205;47.984;7.668;2022-08-16T00:52:39;5.70;;;4.80;;
2388;SDS011;1205;47.984;7.668;2022-08-16T00:55:05;5.17;;;4.77;;
2388;SDS011;1205;47.984;7.668;2022-08-16T00:57:31;5.27;;;4.53;;
2388;SDS011;1205;47.984;7.668;2022-08-16T00:59:57;5.33;;;4.80;;
2388;SDS011;1205;47.984;7.668;2022-08-16T01:02:25;7.27;;;5.07;;
2388;SDS011;1205;47.984;7.668;2022-08-16T01:04:51;5.33;;;4.43;;
2388;SDS011;1205;47.984;7.668;2022-08-16T01:07:17;12.03;;;4.67;;
2388;SDS011;1205;47.984;7.668;2022-08-16T01:09:43;16.47;;;6.00;;
2388;SDS011;1205;47.984;7.668;2022-08-16T01:12:09;5.83;;;5.30;;
2388;SDS011;1205;47.984;7.668;2022-08-16T01:14:47;5.20;;;4.63;;
2388;SDS011;1205;47.984;7.668;2022-08-16T01:17:18;4.77;;;4.37;;
2388;SDS011;1205;47.984;7.668;2022-08-16T01:19:46;4.67;;;4.23;;
2388;SDS011;1205;47.984;7.668;2022-08-16T01:22:38;6.17;;;4.77;;
2388;SDS011;1205;47.984;7.668;2022-08-16T01:25:11;4.20;;;3.90;;
2388;SDS011;1205;47.984;7.668;2022-08-16T01:27:42;5.00;;;4.63;;
2388;SDS011;1205;47.984;7.668;2022-08-16T01:30:30;5.13;;;4.70;;
2388;SDS011;1205;47.984;7.668;2022-08-16T01:33:03;5.63;;;4.80;;
2388;SDS011;1205;47.984;7.668;2022-08-16T01:41:10;6.80;;;5.07;;
2388;SDS011;1205;47.984;7.668;2022-08-16T01:43:39;6.13;;;5.53;;
2388;SDS011;1205;47.984;7.668;2022-08-16T01:46:08;9.17;;;4.97;;
2388;SDS011;1205;47.984;7.668;2022-08-16T01:48:44;7.60;;;5.67;;
2388;SDS011;1205;47.984;7.668;2022-08-16T01:51:10;6.30;;;5.03;;
2388;SDS011;1205;47.984;7.668;2022-08-16T01:53:40;7.83;;;5.00;;
2388;SDS011;1205;47.984;7.668;2022-08-16T01:56:06;5.43;;;4.93;;
2388;SDS011;1205;47.984;7.668;2022-08-16T01:58:32;6.80;;;5.00;;
2388;SDS011;1205;47.984;7.668;2022-08-16T02:00:58;5.57;;;4.83;;
2388;SDS011;1205;47.984;7.668;2022-08-16T02:03:23;5.70;;;5.17;;
2388;SDS011;1205;47.984;7.668;2022-08-16T02:05:49;5.27;;;4.87;;
2388;SDS011;1205;47.984;7.668;2022-08-16T02:08:14;5.20;;;4.70;;
2388;SDS011;1205;47.984;7.668;2022-08-16T02:10:40;8.97;;;4.97;;
2388;SDS011;1205;47.984;7.668;2022-08-16T02:13:06;7.70;;;4.73;;
2388;SDS011;1205;47.984;7.668;2022-08-16T02:15:32;8.60;;;6.30;;
2388;SDS011;1205;47.984;7.668;2022-08-16T02:17:59;5.93;;;5.33;;
2388;SDS011;1205;47.984;7.668;2022-08-16T02:20:27;10.67;;;4.60;;
2388;SDS011;1205;47.984;7.668;2022-08-16T02:22:54;5.30;;;4.80;;
2388;SDS011;1205;47.984;7.668;2022-08-16T02:25:21;6.33;;;5.17;;
2388;SDS011;1205;47.984;7.668;2022-08-16T02:27:47;7.20;;;5.30;;
2388;SDS011;1205;47.984;7.668;2022-08-16T02:30:15;5.20;;;4.80;;
2388;SDS011;1205;47.984;7.668;2022-08-16T02:32:42;5.23;;;4.73;;
2388;SDS011;1205;47.984;7.668;2022-08-16T02:35:09;7.40;;;5.73;;
2388;SDS011;1205;47.984;7.668;2022-08-16T02:37:35;9.40;;;5.53;;
2388;SDS011;1205;47.984;7.668;2022-08-16T02:40:01;7.10;;;5.70;;
2388;SDS011;1205;47.984;7.668;2022-08-16T02:42:29;5.60;;;4.93;;
2388;SDS011;1205;47.984;7.668;2022-08-16T02:44:54;6.17;;;4.60;;
2388;SDS011;1205;47.984;7.668;2022-08-16T02:47:20;9.90;;;5.60;;
2388;SDS011;1205;47.984;7.668;2022-08-16T02:49:45;5.83;;;5.30;;
2388;SDS011;1205;47.984;7.668;2022-08-16T02:52:11;10.83;;;5.87;;
2388;SDS011;1205;47.984;7.668;2022-08-16T02:54:37;5.53;;;5.03;;
2388;SDS011;1205;47.984;7.668;2022-08-16T02:57:03;6.40;;;5.80;;
2388;SDS011;1205;47.984;7.668;2022-08-16T02:59:29;9.00;;;5.13;;
2388;SDS011;1205;47.984;7.668;2022-08-16T03:01:55;8.20;;;5.30;;
2388;SDS011;1205;47.984;7.668;2022-08-16T03:04:21;12.10;;;5.30;;
2388;SDS011;1205;47.984;7.668;2022-08-16T03:06:48;8.47;;;6.20;;
2388;SDS011;1205;47.984;7.668;2022-08-16T03:09:14;5.37;;;4.87;;
2388;SDS011;1205;47.984;7.668;2022-08-16T03:11:40;6.63;;;5.60;;
2388;SDS011;1205;47.984;7.668;2022-08-16T03:14:06;6.23;;;5.77;;
2388;SDS011;1205;47.984;7.668;2022-08-16T03:16:32;5.13;;;4.73;;
2388;SDS011;1205;47.984;7.668;2022-08-16T03:18:57;6.20;;;5.30;;
2388;SDS011;1205;47.984;7.668;2022-08-16T03:21:23;5.73;;;5.00;;
2388;SDS011;1205;47.984;7.668;2022-08-16T03:23:49;8.73;;;5.57;;
2388;SDS011;1205;47.984;7.668;2022-08-16T03:26:15;7.17;;;5.67;;
2388;SDS011;1205;47.984;7.668;2022-08-16T03:28:41;5.90;;;5.50;;
2388;SDS011;1205;47.984;7.668;2022-08-16T03:31:07;6.30;;;5.30;;
2388;SDS011;1205;47.984;7.668;2022-08-16T03:33:33;6.37;;;5.87;;
2388;SDS011;1205;47.984;7.668;2022-08-16T03:36:00;6.97;;;5.77;;
2388;SDS011;1205;47.984;7.668;2022-08-16T03:38:26;11.23;;;5.30;;
2388;SDS011;1205;47.984;7.668;2022-08-16T03:40:53;6.67;;;6.07;;
2388;SDS011;1205;47.984;7.668;2022-08-16T03:43:20;8.87;;;6.60;;
2388;SDS011;1205;47.984;7.668;2022-08-16T03:45:48;5.03;;;4.63;;
2388;SDS011;1205;47.984;7.668;2022-08-16T03:48:15;6.37;;;5.90;;
2388;SDS011;1205;47.984;7.668;2022-08-16T03:50:41;6.70;;;5.80;;
2388;SDS011;1205;47.984;7.668;2022-08-16T03:53:07;6.37;;;5.77;;
2388;SDS011;1205;47.984;7.668;2022-08-16T03:55:32;13.10;;;6.80;;
2388;SDS011;1205;47.984;7.668;2022-08-16T03:57:58;9.67;;;6.10;;
2388;SDS011;1205;47.984;7.668;2022-08-16T04:00:27;7.10;;;6.30;;
2388;SDS011;1205;47.984;7.668;2022-08-16T04:02:54;7.00;;;5.73;;
2388;SDS011;1205;47.984;7.668;2022-08-16T04:05:21;6.40;;;5.80;;
2388;SDS011;1205;47.984;7.668;2022-08-16T04:07:48;10.30;;;5.90;;
2388;SDS011;1205;47.984;7.668;2022-08-16T04:10:14;7.47;;;6.17;;
2388;SDS011;1205;47.984;7.668;2022-08-16T04:12:41;6.00;;;5.37;;
2388;SDS011;1205;47.984;7.668;2022-08-16T04:15:10;12.67;;;5.50;;
2388;SDS011;1205;47.984;7.668;2022-08-16T04:17:38;8.00;;;6.00;;
2388;SDS011;1205;47.984;7.668;2022-08-16T04:20:05;5.43;;;5.03;;
2388;SDS011;1205;47.984;7.668;2022-08-16T04:22:33;5.97;;;4.87;;
2388;SDS011;1205;47.984;7.668;2022-08-16T04:24:59;6.23;;;5.23;;
2388;SDS011;1205;47.984;7.668;2022-08-16T04:27:25;6.57;;;5.93;;
2388;SDS011;1205;47.984;7.668;2022-08-16T04:29:51;7.77;;;5.70;;
2388;SDS011;1205;47.984;7.668;2022-08-16T04:32:17;15.37;;;5.90;;
2388;SDS011;1205;47.984;7.668;2022-08-16T04:34:43;6.33;;;5.77;;
2388;SDS011;1205;47.984;7.668;2022-08-16T04:37:08;6.87;;;5.70;;
2388;SDS011;1205;47.984;7.668;2022-08-16T04:39:34;10.37;;;6.07;;
2388;SDS011;1205;47.984;7.668;2022-08-16T04:42:00;15.47;;;6.30;;
2388;SDS011;1205;47.984;7.668;2022-08-16T04:44:26;10.50;;;5.50;;
2388;SDS011;1205;47.984;7.668;2022-08-16T04:46:52;9.13;;;5.53;;
2388;SDS011;1205;47.984;7.668;2022-08-16T04:49:18;8.17;;;6.53;;
2388;SDS011;1205;47.984;7.668;2022-08-16T04:51:43;6.57;;;6.00;;
2388;SDS011;1205;47.984;7.668;2022-08-16T04:54:09;9.43;;;4.80;;
2388;SDS011;1205;47.984;7.668;2022-08-16T04:56:35;12.63;;;5.60;;
2388;SDS011;1205;47.984;7.668;2022-08-16T04:59:02;7.23;;;6.50;;
2388;SDS011;1205;47.984;7.668;2022-08-16T05:01:28;7.27;;;6.57;;
2388;SDS011;1205;47.984;7.668;2022-08-16T05:03:54;7.70;;;7.03;;
2388;SDS011;1205;47.984;7.668;2022-08-16T05:06:19;7.40;;;6.07;;
2388;SDS011;1205;47.984;7.668;2022-08-16T05:08:45;7.60;;;6.90;;
2388;SDS011;1205;47.984;7.668;2022-08-16T05:11:11;8.40;;;7.27;;
2388;SDS011;1205;47.984;7.668;2022-08-16T05:13:39;13.03;;;6.63;;
2388;SDS011;1205;47.984;7.668;2022-08-16T05:16:07;7.83;;;7.10;;
2388;SDS011;1205;47.984;7.668;2022-08-16T05:18:34;11.87;;;6.40;;
2388;SDS011;1205;47.984;7.668;2022-08-16T05:21:00;11.40;;;6.63;;
2388;SDS011;1205;47.984;7.668;2022-08-16T05:23:26;7.63;;;6.43;;
2388;SDS011;1205;47.984;7.668;2022-08-16T05:25:52;6.57;;;5.70;;
2388;SDS011;1205;47.984;7.668;2022-08-16T05:28:18;10.27;;;6.63;;
2388;SDS011;1205;47.984;7.668;2022-08-16T05:30:43;7.80;;;6.27;;
2388;SDS011;1205;47.984;7.668;2022-08-16T05:33:10;13.80;;;6.10;;
2388;SDS011;1205;47.984;7.668;2022-08-16T05:35:36;12.13;;;6.97;;
2388;SDS011;1205;47.984;7.668;2022-08-16T05:38:02;8.50;;;7.03;;
2388;SDS011;1205;47.984;7.668;2022-08-16T05:40:28;6.80;;;6.13;;
2388;SDS011;1205;47.984;7.668;2022-08-16T05:42:54;11.00;;;5.53;;
2388;SDS011;1205;47.984;7.668;2022-08-16T05:45:19;5.73;;;5.30;;
2388;SDS011;1205;47.984;7.668;2022-08-16T05:47:45;6.63;;;5.83;;
2388;SDS011;1205;47.984;7.668;2022-08-16T05:50:11;10.53;;;5.20;;
2388;SDS011;1205;47.984;7.668;2022-08-16T05:52:36;11.60;;;5.60;;
2388;SDS011;1205;47.984;7.668;2022-08-16T05:55:02;8.70;;;6.50;;
2388;SDS011;1205;47.984;7.668;2022-08-16T05:57:29;6.60;;;5.57;;
2388;SDS011;1205;47.984;7.668;2022-08-16T05:59:55;10.37;;;7.03;;
2388;SDS011;1205;47.984;7.668;2022-08-16T06:02:20;18.77;;;6.33;;
2388;SDS011;1205;47.984;7.668;2022-08-16T06:04:48;10.40;;;6.33;;
2388;SDS011;1205;47.984;7.668;2022-08-16T06:07:14;7.20;;;5.57;;
2388;SDS011;1205;47.984;7.668;2022-08-16T06:09:40;7.67;;;5.70;;
2388;SDS011;1205;47.984;7.668;2022-08-16T06:12:06;7.70;;;6.70;;
2388;SDS011;1205;47.984;7.668;2022-08-16T06:14:32;5.60;;;5.10;;
2388;SDS011;1205;47.984;7.668;2022-08-16T06:16:57;9.80;;;5.80;;
2388;SDS011;1205;47.984;7.668;2022-08-16T06:19:23;10.23;;;5.57;;
2388;SDS011;1205;47.984;7.668;2022-08-16T06:21:49;7.33;;;6.60;;
2388;SDS011;1205;47.984;7.668;2022-08-16T06:24:14;7.00;;;6.33;;
2388;SDS011;1205;47.984;7.668;2022-08-16T06:26:40;8.77;;;6.90;;
2388;SDS011;1205;47.984;7.668;2022-08-16T06:29:05;6.67;;;6.07;;
2388;SDS011;1205;47.984;7.668;2022-08-16T06:31:31;9.23;;;6.33;;
2388;SDS011;1205;47.984;7.668;2022-08-16T06:33:57;8.03;;;6.10;;
2388;SDS011;1205;47.984;7.668;2022-08-16T06:36:23;13.20;;;6.40;;
2388;SDS011;1205;47.984;7.668;2022-08-16T06:38:49;7.70;;;6.43;;
2388;SDS011;1205;47.984;7.668;2022-08-16T06:41:15;9.23;;;7.27;;
2388;SDS011;1205;47.984;7.668;2022-08-16T06:43:41;10.27;;;5.90;;
2388;SDS011;1205;47.984;7.668;2022-08-16T06:46:07;9.93;;;7.00;;
2388;SDS011;1205;47.984;7.668;2022-08-16T06:48:46;8.33;;;6.37;;
2388;SDS011;1205;47.984;7.668;2022-08-16T06:51:12;8.50;;;5.90;;
2388;SDS011;1205;47.984;7.668;2022-08-16T06:53:37;9.10;;;5.90;;
2388;SDS011;1205;47.984;7.668;2022-08-16T06:56:12;10.83;;;5.93;;
2388;SDS011;1205;47.984;7.668;2022-08-16T06:58:47;8.90;;;5.30;;
2388;SDS011;1205;47.984;7.668;2022-08-16T07:01:12;13.53;;;6.00;;
2388;SDS011;1205;47.984;7.668;2022-08-16T07:03:38;6.37;;;5.60;;
2388;SDS011;1205;47.984;7.668;2022-08-16T07:06:04;14.10;;;6.67;;
2388;SDS011;1205;47.984;7.668;2022-08-16T07:08:30;13.03;;;5.97;;
2388;SDS011;1205;47.984;7.668;2022-08-16T07:10:56;7.20;;;5.83;;
2388;SDS011;1205;47.984;7.668;2022-08-16T07:13:22;10.13;;;5.93;;
2388;SDS011;1205;47.984;7.668;2022-08-16T07:15:49;7.40;;;6.27;;
2388;SDS011;1205;47.984;7.668;2022-08-16T07:18:16;10.97;;;6.10;;
2388;SDS011;1205;47.984;7.668;2022-08-16T07:20:44;6.30;;;5.80;;
2388;SDS011;1205;47.984;7.668;2022-08-16T07:23:10;6.83;;;5.90;;
2388;SDS011;1205;47.984;7.668;2022-08-16T07:25:36;8.10;;;5.20;;
2388;SDS011;1205;47.984;7.668;2022-08-16T07:28:02;11.90;;;6.50;;
2388;SDS011;1205;47.984;7.668;2022-08-16T07:30:29;7.90;;;5.87;;
2388;SDS011;1205;47.984;7.668;2022-08-16T07:32:56;7.00;;;5.60;;
2388;SDS011;1205;47.984;7.668;2022-08-16T07:35:23;7.17;;;5.87;;
2388;SDS011;1205;47.984;7.668;2022-08-16T07:37:49;11.93;;;7.23;;
2388;SDS011;1205;47.984;7.668;2022-08-16T07:40:15;7.43;;;5.57;;
2388;SDS011;1205;47.984;7.668;2022-08-16T07:42:40;7.23;;;5.73;;
2388;SDS011;1205;47.984;7.668;2022-08-16T07:45:06;6.83;;;6.03;;
2388;SDS011;1205;47.984;7.668;2022-08-16T07:47:32;6.87;;;5.67;;
2388;SDS011;1205;47.984;7.668;2022-08-16T07:49:59;5.10;;;4.60;;
2388;SDS011;1205;47.984;7.668;2022-08-16T07:52:25;7.57;;;5.00;;
2388;SDS011;1205;47.984;7.668;2022-08-16T07:54:52;5.60;;;5.10;;
2388;SDS011;1205;47.984;7.668;2022-08-16T07:57:17;5.57;;;5.07;;
2388;SDS011;1205;47.984;7.668;2022-08-16T07:59:43;6.23;;;4.80;;
2388;SDS011;1205;47.984;7.668;2022-08-16T08:02:09;10.40;;;5.47;;
2388;SDS011;1205;47.984;7.668;2022-08-16T08:04:36;6.63;;;4.80;;
2388;SDS011;1205;47.984;7.668;2022-08-16T08:07:02;6.03;;;5.27;;
2388;SDS011;1205;47.984;7.668;2022-08-16T08:09:28;6.90;;;4.47;;
2388;SDS011;1205;47.984;7.668;2022-08-16T08:11:54;6.00;;;4.80;;
2388;SDS011;1205;47.984;7.668;2022-08-16T08:14:19;7.33;;;5.00;;
2388;SDS011;1205;47.984;7.668;2022-08-16T08:16:45;10.60;;;5.10;;
2388;SDS011;1205;47.984;7.668;2022-08-16T08:19:11;17.97;;;5.40;;
2388;SDS011;1205;47.984;7.668;2022-08-16T08:21:37;6.97;;;5.43;;
2388;SDS011;1205;47.984;7.668;2022-08-16T08:24:04;7.80;;;4.63;;
2388;SDS011;1205;47.984;7.668;2022-08-16T08:26:32;7.00;;;4.23;;
2388;SDS011;1205;47.984;7.668;2022-08-16T08:28:58;12.30;;;5.10;;
2388;SDS011;1205;47.984;7.668;2022-08-16T08:31:23;5.47;;;5.00;;
2388;SDS011;1205;47.984;7.668;2022-08-16T08:33:49;16.37;;;5.00;;
2388;SDS011;1205;47.984;7.668;2022-08-16T08:36:16;8.03;;;4.40;;
2388;SDS011;1205;47.984;7.668;2022-08-16T08:38:49;5.40;;;4.90;;
2388;SDS011;1205;47.984;7.668;2022-08-16T08:41:16;5.87;;;4.70;;
2388;SDS011;1205;47.984;7.668;2022-08-16T08:43:42;4.10;;;3.77;;
2388;SDS011;1205;47.984;7.668;2022-08-16T08:46:09;6.87;;;4.10;;
2388;SDS011;1205;47.984;7.668;2022-08-16T08:48:35;8.20;;;4.63;;
2388;SDS011;1205;47.984;7.668;2022-08-16T08:51:05;5.93;;;4.40;;
2388;SDS011;1205;47.984;7.668;2022-08-16T08:53:32;5.80;;;4.73;;
2388;SDS011;1205;47.984;7.668;2022-08-16T08:55:58;8.23;;;4.47;;
2388;SDS011;1205;47.984;7.668;2022-08-16T08:58:24;9.80;;;4.77;;
2388;SDS011;1205;47.984;7.668;2022-08-16T09:00:50;6.70;;;4.77;;
2388;SDS011;1205;47.984;7.668;2022-08-16T09:03:16;4.70;;;4.40;;
2388;SDS011;1205;47.984;7.668;2022-08-16T09:05:42;4.83;;;4.33;;
2388;SDS011;1205;47.984;7.668;2022-08-16T09:08:08;4.60;;;4.17;;
2388;SDS011;1205;47.984;7.668;2022-08-16T09:10:35;7.13;;;5.30;;
2388;SDS011;1205;47.984;7.668;2022-08-16T09:13:00;4.50;;;4.10;;
2388;SDS011;1205;47.984;7.668;2022-08-16T09:15:30;8.17;;;5.70;;
2388;SDS011;1205;47.984;7.668;2022-08-16T09:17:56;6.50;;;4.77;;
2388;SDS011;1205;47.984;7.668;2022-08-16T09:20:23;9.70;;;4.10;;
2388;SDS011;1205;47.984;7.668;2022-08-16T09:22:50;6.57;;;4.47;;
2388;SDS011;1205;47.984;7.668;2022-08-16T09:25:15;5.17;;;4.67;;
2388;SDS011;1205;47.984;7.668;2022-08-16T09:27:41;11.10;;;5.40;;
2388;SDS011;1205;47.984;7.668;2022-08-16T09:30:07;9.57;;;5.50;;
2388;SDS011;1205;47.984;7.668;2022-08-16T09:32:34;7.30;;;5.30;;
2388;SDS011;1205;47.984;7.668;2022-08-16T09:35:00;10.20;;;4.50;;
2388;SDS011;1205;47.984;7.668;2022-08-16T09:37:26;6.53;;;4.90;;
2388;SDS011;1205;47.984;7.668;2022-08-16T09:39:54;10.47;;;5.13;;
2388;SDS011;1205;47.984;7.668;2022-08-16T09:42:20;7.40;;;5.70;;
2388;SDS011;1205;47.984;7.668;2022-08-16T09:44:46;5.33;;;4.57;;
2388;SDS011;1205;47.984;7.668;2022-08-16T09:47:11;8.10;;;4.93;;
2388;SDS011;1205;47.984;7.668;2022-08-16T09:49:37;5.00;;;4.60;;
2388;SDS011;1205;47.984;7.668;2022-08-16T09:52:03;5.40;;;4.87;;
2388;SDS011;1205;47.984;7.668;2022-08-16T09:54:29;12.93;;;4.77;;
2388;SDS011;1205;47.984;7.668;2022-08-16T09:56:54;7.77;;;5.00;;
2388;SDS011;1205;47.984;7.668;2022-08-16T09:59:21;9.30;;;4.50;;
2388;SDS011;1205;47.984;7.668;2022-08-16T10:01:49;7.30;;;4.83;;
2388;SDS011;1205;47.984;7.668;2022-08-16T10:04:16;7.20;;;4.40;;
2388;SDS011;1205;47.984;7.668;2022-08-16T10:06:42;6.20;;;4.20;;
2388;SDS011;1205;47.984;7.668;2022-08-16T10:09:09;7.20;;;4.37;;
2388;SDS011;1205;47.984;7.668;2022-08-16T10:11:35;9.73;;;4.50;;
2388;SDS011;1205;47.984;7.668;2022-08-16T10:14:20;8.10;;;5.10;;
2388;SDS011;1205;47.984;7.668;2022-08-16T10:16:47;6.90;;;4.60;;
2388;SDS011;1205;47.984;7.668;2022-08-16T10:19:13;5.63;;;4.37;;
2388;SDS011;1205;47.984;7.668;2022-08-16T10:21:39;6.43;;;4.17;;
2388;SDS011;1205;47.984;7.668;2022-08-16T10:24:06;8.20;;;4.10;;
2388;SDS011;1205;47.984;7.668;2022-08-16T10:26:32;7.60;;;4.17;;
2388;SDS011;1205;47.984;7.668;2022-08-16T10:28:58;6.33;;;4.53;;
2388;SDS011;1205;47.984;7.668;2022-08-16T10:31:24;4.83;;;3.93;;
2388;SDS011;1205;47.984;7.668;2022-08-16T10:33:50;7.00;;;3.90;;
2388;SDS011;1205;47.984;7.668;2022-08-16T10:36:16;5.30;;;3.63;;
2388;SDS011;1205;47.984;7.668;2022-08-16T10:38:42;7.60;;;4.43;;
2388;SDS011;1205;47.984;7.668;2022-08-16T10:41:08;4.50;;;4.07;;
2388;SDS011;1205;47.984;7.668;2022-08-16T10:43:35;18.20;;;5.23;;
2388;SDS011;1205;47.984;7.668;2022-08-16T10:46:03;4.20;;;3.90;;
2388;SDS011;1205;47.984;7.668;2022-08-16T10:48:30;4.33;;;3.90;;
2388;SDS011;1205;47.984;7.668;2022-08-16T10:50:56;8.90;;;3.80;;
2388;SDS011;1205;47.984;7.668;2022-08-16T10:53:23;6.73;;;3.87;;
2388;SDS011;1205;47.984;7.668;2022-08-16T10:55:52;8.20;;;4.00;;
2388;SDS011;1205;47.984;7.668;2022-08-16T10:58:18;4.20;;;3.80;;
2388;SDS011;1205;47.984;7.668;2022-08-16T11:00:44;5.73;;;3.67;;
2388;SDS011;1205;47.984;7.668;2022-08-16T11:03:10;9.63;;;4.10;;
2388;SDS011;1205;47.984;7.668;2022-08-16T11:05:37;5.23;;;4.00;;
2388;SDS011;1205;47.984;7.668;2022-08-16T11:08:04;3.40;;;3.10;;
2388;SDS011;1205;47.984;7.668;2022-08-16T11:10:35;3.70;;;3.47;;
2388;SDS011;1205;47.984;7.668;2022-08-16T11:13:03;4.93;;;3.50;;
2388;SDS011;1205;47.984;7.668;2022-08-16T11:15:31;4.40;;;3.40;;
2388;SDS011;1205;47.984;7.668;2022-08-16T11:17:57;5.53;;;3.73;;
2388;SDS011;1205;47.984;7.668;2022-08-16T11:20:24;3.97;;;3.23;;
2388;SDS011;1205;47.984;7.668;2022-08-16T11:22:49;5.50;;;4.00;;
2388;SDS011;1205;47.984;7.668;2022-08-16T11:25:16;3.97;;;3.30;;
2388;SDS011;1205;47.984;7.668;2022-08-16T11:27:44;3.97;;;3.60;;
2388;SDS011;1205;47.984;7.668;2022-08-16T11:30:11;7.80;;;4.00;;
2388;SDS011;1205;47.984;7.668;2022-08-16T11:32:39;4.00;;;3.30;;
2388;SDS011;1205;47.984;7.668;2022-08-16T11:35:09;6.93;;;3.43;;
2388;SDS011;1205;47.984;7.668;2022-08-16T11:37:41;3.80;;;3.50;;
2388;SDS011;1205;47.984;7.668;2022-08-16T11:40:19;3.53;;;3.33;;
2388;SDS011;1205;47.984;7.668;2022-08-16T11:42:46;5.10;;;3.97;;
2388;SDS011;1205;47.984;7.668;2022-08-16T11:45:12;3.43;;;3.23;;
2388;SDS011;1205;47.984;7.668;2022-08-16T11:47:37;4.30;;;3.60;;
2388;SDS011;1205;47.984;7.668;2022-08-16T11:50:04;3.57;;;2.90;;
2388;SDS011;1205;47.984;7.668;2022-08-16T11:52:33;3.40;;;3.20;;
2388;SDS011;1205;47.984;7.668;2022-08-16T11:54:59;4.53;;;3.03;;
2388;SDS011;1205;47.984;7.668;2022-08-16T11:57:25;2.73;;;2.53;;
2388;SDS011;1205;47.984;7.668;2022-08-16T11:59:51;10.10;;;3.20;;
2388;SDS011;1205;47.984;7.668;2022-08-16T12:02:17;4.50;;;3.43;;
2388;SDS011;1205;47.984;7.668;2022-08-16T12:04:43;3.43;;;3.00;;
2388;SDS011;1205;47.984;7.668;2022-08-16T12:07:09;3.43;;;3.13;;
2388;SDS011;1205;47.984;7.668;2022-08-16T12:09:38;6.20;;;3.53;;
2388;SDS011;1205;47.984;7.668;2022-08-16T12:12:04;3.80;;;3.23;;
2388;SDS011;1205;47.984;7.668;2022-08-16T12:14:30;6.37;;;4.03;;
2388;SDS011;1205;47.984;7.668;2022-08-16T12:16:57;4.63;;;2.90;;
2388;SDS011;1205;47.984;7.668;2022-08-16T12:19:26;7.77;;;3.77;;
2388;SDS011;1205;47.984;7.668;2022-08-16T12:21:51;4.40;;;3.60;;
2388;SDS011;1205;47.984;7.668;2022-08-16T12:24:17;5.53;;;3.33;;
2388;SDS011;1205;47.984;7.668;2022-08-16T12:26:43;4.40;;;3.00;;
2388;SDS011;1205;47.984;7.668;2022-08-16T12:29:08;6.20;;;3.20;;
2388;SDS011;1205;47.984;7.668;2022-08-16T12:31:34;5.93;;;3.63;;
2388;SDS011;1205;47.984;7.668;2022-08-16T12:34:00;9.50;;;3.67;;
2388;SDS011;1205;47.984;7.668;2022-08-16T12:36:26;3.50;;;3.20;;
2388;SDS011;1205;47.984;7.668;2022-08-16T12:38:52;3.30;;;3.00;;
2388;SDS011;1205;47.984;7.668;2022-08-16T12:41:19;3.13;;;3.03;;
2388;SDS011;1205;47.984;7.668;2022-08-16T12:43:46;4.20;;;3.10;;
2388;SDS011;1205;47.984;7.668;2022-08-16T12:46:12;3.47;;;2.90;;
2388;SDS011;1205;47.984;7.668;2022-08-16T12:48:38;3.83;;;3.10;;
2388;SDS011;1205;47.984;7.668;2022-08-16T12:51:23;5.63;;;2.90;;
2388;SDS011;1205;47.984;7.668;2022-08-16T12:54:02;3.93;;;3.00;;
2388;SDS011;1205;47.984;7.668;2022-08-16T12:56:31;3.20;;;3.00;;
2388;SDS011;1205;47.984;7.668;2022-08-16T12:59:00;4.80;;;3.40;;
2388;SDS011;1205;47.984;7.668;2022-08-16T13:01:29;4.43;;;2.97;;
2388;SDS011;1205;47.984;7.668;2022-08-16T13:03:57;12.43;;;3.40;;
2388;SDS011;1205;47.984;7.668;2022-08-16T13:06:24;5.23;;;3.60;;
2388;SDS011;1205;47.984;7.668;2022-08-16T13:08:50;6.87;;;2.90;;
2388;SDS011;1205;47.984;7.668;2022-08-16T13:11:19;4.50;;;3.20;;
2388;SDS011;1205;47.984;7.668;2022-08-16T13:13:49;3.03;;;2.90;;
2388;SDS011;1205;47.984;7.668;2022-08-16T13:16:14;8.53;;;3.37;;
2388;SDS011;1205;47.984;7.668;2022-08-16T13:18:40;5.73;;;3.00;;
2388;SDS011;1205;47.984;7.668;2022-08-16T13:21:06;2.93;;;2.73;;
2388;SDS011;1205;47.984;7.668;2022-08-16T13:23:34;9.33;;;3.30;;
2388;SDS011;1205;47.984;7.668;2022-08-16T13:26:00;3.40;;;3.00;;
2388;SDS011;1205;47.984;7.668;2022-08-16T13:28:26;6.20;;;5.00;;
2388;SDS011;1205;47.984;7.668;2022-08-16T13:30:54;3.70;;;3.40;;
2388;SDS011;1205;47.984;7.668;2022-08-16T13:33:22;8.43;;;2.97;;
2388;SDS011;1205;47.984;7.668;2022-08-16T13:36:01;4.00;;;2.70;;
2388;SDS011;1205;47.984;7.668;2022-08-16T13:38:29;3.73;;;2.90;;
2388;SDS011;1205;47.984;7.668;2022-08-16T13:40:55;4.80;;;2.83;;
2388;SDS011;1205;47.984;7.668;2022-08-16T13:43:21;3.03;;;2.83;;
2388;SDS011;1205;47.984;7.668;2022-08-16T13:45:48;12.37;;;3.13;;
2388;SDS011;1205;47.984;7.668;2022-08-16T13:48:15;4.07;;;3.13;;
2388;SDS011;1205;47.984;7.668;2022-08-16T13:50:41;5.03;;;2.80;;
2388;SDS011;1205;47.984;7.668;2022-08-16T13:53:07;3.27;;;2.97;;
2388;SDS011;1205;47.984;7.668;2022-08-16T13:55:32;3.00;;;2.80;;
2388;SDS011;1205;47.984;7.668;2022-08-16T13:57:58;2.97;;;2.77;;
2388;SDS011;1205;47.984;7.668;2022-08-16T14:00:24;2.60;;;2.40;;
2388;SDS011;1205;47.984;7.668;2022-08-16T14:02:49;2.87;;;2.67;;
2388;SDS011;1205;47.984;7.668;2022-08-16T14:05:15;3.87;;;2.90;;
2388;SDS011;1205;47.984;7.668;2022-08-16T14:07:41;3.30;;;3.00;;
2388;SDS011;1205;47.984;7.668;2022-08-16T14:10:07;2.60;;;2.40;;
2388;SDS011;1205;47.984;7.668;2022-08-16T14:12:35;4.27;;;3.07;;
2388;SDS011;1205;47.984;7.668;2022-08-16T14:15:03;3.43;;;3.13;;
2388;SDS011;1205;47.984;7.668;2022-08-16T14:17:29;6.20;;;2.70;;
2388;SDS011;1205;47.984;7.668;2022-08-16T14:19:55;5.97;;;2.83;;
2388;SDS011;1205;47.984;7.668;2022-08-16T14:22:22;3.33;;;3.13;;
2388;SDS011;1205;47.984;7.668;2022-08-16T14:24:50;2.47;;;2.27;;
2388;SDS011;1205;47.984;7.668;2022-08-16T14:27:18;4.20;;;2.90;;
2388;SDS011;1205;47.984;7.668;2022-08-16T14:29:46;3.33;;;2.73;;
2388;SDS011;1205;47.984;7.668;2022-08-16T14:32:12;5.13;;;3.10;;
2388;SDS011;1205;47.984;7.668;2022-08-16T14:34:38;6.23;;;3.03;;
2388;SDS011;1205;47.984;7.668;2022-08-16T14:37:04;3.33;;;2.90;;
2388;SDS011;1205;47.984;7.668;2022-08-16T14:39:30;7.47;;;3.10;;
2388;SDS011;1205;47.984;7.668;2022-08-16T14:42:10;4.93;;;3.17;;
2388;SDS011;1205;47.984;7.668;2022-08-16T14:44:38;2.80;;;2.60;;
2388;SDS011;1205;47.984;7.668;2022-08-16T14:47:04;3.50;;;2.50;;
2388;SDS011;1205;47.984;7.668;2022-08-16T14:49:31;4.90;;;3.10;;
2388;SDS011;1205;47.984;7.668;2022-08-16T14:52:02;2.73;;;2.43;;
2388;SDS011;1205;47.984;7.668;2022-08-16T14:54:29;3.33;;;3.00;;
2388;SDS011;1205;47.984;7.668;2022-08-16T14:56:55;3.00;;;2.80;;
2388;SDS011;1205;47.984;7.668;2022-08-16T14:59:20;13.10;;;3.00;;
2388;SDS011;1205;47.984;7.668;2022-08-16T15:01:47;2.60;;;2.40;;
2388;SDS011;1205;47.984;7.668;2022-08-16T15:04:12;4.73;;;2.80;;
2388;SDS011;1205;47.984;7.668;2022-08-16T15:06:38;5.23;;;3.10;;
2388;SDS011;1205;47.984;7.668;2022-08-16T15:09:04;4.93;;;3.03;;
2388;SDS011;1205;47.984;7.668;2022-08-16T15:11:29;6.20;;;2.30;;
2388;SDS011;1205;47.984;7.668;2022-08-16T15:13:55;2.63;;;2.43;;
2388;SDS011;1205;47.984;7.668;2022-08-16T15:16:21;2.57;;;2.40;;
2388;SDS011;1205;47.984;7.668;2022-08-16T15:18:47;6.70;;;3.07;;